Time;durP1;ratioP1;P1;durP2;ratioP2;P2;SDS_P1;SDS_P2;PMS_P1;PMS_P2;Temp;Humidity;BMP_temperature;BMP_pressure;BME280_temperature;BME280_humidity;BME280_pressure;Samples;Min_cycle;Max_cycle;Signal;HPM_P1;HPM_P2
2022/11/30 00:00:12;;;;;;;27.17;18.58;;;;;;;;;;5162249;27;20623;-73
2022/11/30 00:02:39;;;;;;;28.02;17.52;;;;;;;;;;5165235;27;20142;-76
2022/11/30 00:05:05;;;;;;;26.17;17.13;;;;;;;;;;5147380;27;20050;-73
2022/11/30 00:07:32;;;;;;;29.25;17.67;;;;;;;;;;5159234;27;20687;-73
2022/11/30 00:09:58;;;;;;;29.63;18.05;;;;;;;;;;5167057;27;20573;-73
2022/11/30 00:12:25;;;;;;;31.73;19.08;;;;;;;;;;5164892;27;20174;-75
2022/11/30 00:14:51;;;;;;;29.77;17.80;;;;;;;;;;5165274;27;20058;-76
2022/11/30 00:17:17;;;;;;;30.30;17.67;;;;;;;;;;5150955;27;20523;-76
2022/11/30 00:19:44;;;;;;;28.27;17.67;;;;;;;;;;5145412;27;20057;-76
2022/11/30 00:22:10;;;;;;;30.58;18.00;;;;;;;;;;5156337;27;20339;-73
2022/11/30 00:24:36;;;;;;;25.30;16.70;;;;;;;;;;5166872;27;20077;-75
2022/11/30 00:27:03;;;;;;;26.85;17.88;;;;;;;;;;5160896;27;20489;-74
2022/11/30 00:29:29;;;;;;;28.15;18.90;;;;;;;;;;5165264;27;20148;-75
2022/11/30 00:31:55;;;;;;;31.05;19.83;;;;;;;;;;5165703;27;20081;-72
2022/11/30 00:34:22;;;;;;;30.85;18.88;;;;;;;;;;5164927;27;20054;-72
2022/11/30 00:36:48;;;;;;;25.75;16.35;;;;;;;;;;5163465;27;20073;-74
2022/11/30 00:39:14;;;;;;;27.60;18.02;;;;;;;;;;5149884;27;20528;-76
2022/11/30 00:41:41;;;;;;;31.17;18.33;;;;;;;;;;5151059;27;20532;-76
2022/11/30 00:44:07;;;;;;;29.02;17.13;;;;;;;;;;5164485;27;20469;-74
2022/11/30 00:46:34;;;;;;;28.17;18.33;;;;;;;;;;5164196;27;20517;-73
2022/11/30 00:49:00;;;;;;;27.50;18.05;;;;;;;;;;5166719;27;20579;-76
2022/11/30 00:51:26;;;;;;;34.58;18.15;;;;;;;;;;5164722;27;20469;-75
2022/11/30 00:53:53;;;;;;;29.30;17.15;;;;;;;;;;5166185;27;20089;-76
2022/11/30 00:56:19;;;;;;;29.83;18.77;;;;;;;;;;5158026;27;20043;-75
2022/11/30 00:58:45;;;;;;;29.23;17.23;;;;;;;;;;5162410;27;20046;-72
2022/11/30 01:01:12;;;;;;;28.38;18.30;;;;;;;;;;5163945;27;20058;-74
2022/11/30 01:03:39;;;;;;;27.75;18.05;;;;;;;;;;5166739;27;20518;-75
2022/11/30 01:06:06;;;;;;;32.15;17.90;;;;;;;;;;5161219;27;20039;-71
2022/11/30 01:08:33;;;;;;;28.75;18.70;;;;;;;;;;5152347;27;20043;-72
2022/11/30 01:11:25;;;;;;;27.15;17.90;;;;;;;;;;5157679;27;20050;-72
2022/11/30 01:13:52;;;;;;;29.92;18.33;;;;;;;;;;5148161;27;20057;-75
2022/11/30 01:16:20;;;;;;;31.15;18.13;;;;;;;;;;5165940;27;20054;-75
2022/11/30 01:18:47;;;;;;;28.33;16.15;;;;;;;;;;5165589;27;20061;-75
2022/11/30 01:21:15;;;;;;;32.38;18.48;;;;;;;;;;5164394;27;20080;-72
2022/11/30 01:23:41;;;;;;;27.17;17.80;;;;;;;;;;5165965;27;20059;-72
2022/11/30 01:26:08;;;;;;;29.95;18.17;;;;;;;;;;5159916;27;20561;-73
2022/11/30 01:28:34;;;;;;;28.58;18.17;;;;;;;;;;5154977;27;20053;-75
2022/11/30 01:31:03;;;;;;;27.95;16.85;;;;;;;;;;5165700;27;20495;-74
2022/11/30 01:33:29;;;;;;;28.52;17.98;;;;;;;;;;5165036;27;20050;-72
2022/11/30 01:35:59;;;;;;;29.17;17.58;;;;;;;;;;5163635;27;20047;-74
2022/11/30 01:38:26;;;;;;;33.85;17.50;;;;;;;;;;5164432;27;20669;-76
2022/11/30 01:40:52;;;;;;;27.77;18.10;;;;;;;;;;5165976;27;20062;-72
2022/11/30 01:43:19;;;;;;;28.80;17.45;;;;;;;;;;5162157;27;20061;-72
2022/11/30 01:45:47;;;;;;;29.70;18.63;;;;;;;;;;5162777;27;20111;-73
2022/11/30 01:48:13;;;;;;;30.00;18.15;;;;;;;;;;5164435;27;20054;-75
2022/11/30 01:50:40;;;;;;;28.13;17.63;;;;;;;;;;5162018;27;20051;-75
2022/11/30 01:53:08;;;;;;;28.98;17.63;;;;;;;;;;5161702;27;20589;-72
2022/11/30 01:55:36;;;;;;;29.48;17.67;;;;;;;;;;5161399;27;20669;-75
2022/11/30 01:58:04;;;;;;;28.48;18.13;;;;;;;;;;5162332;27;20042;-75
2022/11/30 02:00:31;;;;;;;29.42;18.20;;;;;;;;;;5163428;27;20073;-72
2022/11/30 02:03:03;;;;;;;29.60;17.67;;;;;;;;;;5145376;27;20156;-74
2022/11/30 02:05:30;;;;;;;30.30;17.30;;;;;;;;;;5153975;27;20055;-73
2022/11/30 02:07:56;;;;;;;25.08;16.55;;;;;;;;;;5145846;27;20489;-72
2022/11/30 02:10:25;;;;;;;30.23;16.90;;;;;;;;;;5162940;27;20456;-74
2022/11/30 02:13:16;;;;;;;25.15;17.45;;;;;;;;;;5164504;27;20586;-74
2022/11/30 02:16:03;;;;;;;30.63;15.93;;;;;;;;;;5157291;27;20428;-74
2022/11/30 02:18:31;;;;;;;26.40;16.60;;;;;;;;;;5160526;27;20062;-75
2022/11/30 02:21:04;;;;;;;29.23;17.77;;;;;;;;;;5163505;27;20047;-74
2022/11/30 02:23:31;;;;;;;25.67;16.05;;;;;;;;;;5166464;27;20051;-75
2022/11/30 02:26:24;;;;;;;29.00;16.90;;;;;;;;;;5157880;27;20589;-73
2022/11/30 02:29:02;;;;;;;29.53;17.33;;;;;;;;;;5166623;27;20070;-73
2022/11/30 02:31:33;;;;;;;27.05;17.20;;;;;;;;;;5166803;27;20364;-74
2022/11/30 02:34:01;;;;;;;29.38;17.50;;;;;;;;;;5167456;27;20061;-73
2022/11/30 02:36:28;;;;;;;30.02;17.60;;;;;;;;;;5166513;27;20564;-73
2022/11/30 02:38:55;;;;;;;28.17;17.50;;;;;;;;;;5167738;27;20062;-71
2022/11/30 02:41:22;;;;;;;32.00;18.20;;;;;;;;;;5164830;27;20051;-74
2022/11/30 02:43:49;;;;;;;28.40;17.00;;;;;;;;;;5167399;27;20517;-74
2022/11/30 02:46:19;;;;;;;33.65;18.65;;;;;;;;;;5165359;27;20053;-72
2022/11/30 02:48:53;;;;;;;30.50;17.90;;;;;;;;;;5162852;27;20529;-74
2022/11/30 02:51:22;;;;;;;28.42;17.33;;;;;;;;;;5166050;27;20049;-73
2022/11/30 02:53:49;;;;;;;30.08;16.48;;;;;;;;;;5166006;27;20058;-73
2022/11/30 02:56:16;;;;;;;31.58;18.13;;;;;;;;;;5165128;27;20557;-74
2022/11/30 02:58:42;;;;;;;27.65;17.50;;;;;;;;;;5165778;27;20452;-72
2022/11/30 03:01:09;;;;;;;29.10;17.75;;;;;;;;;;5165702;27;20051;-74
2022/11/30 03:03:36;;;;;;;33.85;17.10;;;;;;;;;;5161751;27;20610;-73
2022/11/30 03:06:02;;;;;;;28.70;18.50;;;;;;;;;;5166683;27;20526;-72
2022/11/30 03:08:28;;;;;;;30.55;18.50;;;;;;;;;;5166157;27;20429;-74
2022/11/30 03:10:55;;;;;;;28.65;17.95;;;;;;;;;;5166669;27;20107;-73
2022/11/30 03:13:21;;;;;;;28.42;17.75;;;;;;;;;;5164861;27;20050;-74
2022/11/30 03:15:47;;;;;;;28.70;19.13;;;;;;;;;;5164644;27;20042;-75
2022/11/30 03:18:14;;;;;;;28.52;16.67;;;;;;;;;;5166270;27;20047;-76
2022/11/30 03:20:41;;;;;;;29.30;19.08;;;;;;;;;;5165311;27;20051;-72
2022/11/30 03:23:08;;;;;;;27.20;17.88;;;;;;;;;;5164280;27;20499;-75
2022/11/30 03:25:34;;;;;;;26.75;16.92;;;;;;;;;;5158905;27;20523;-75
2022/11/30 03:28:01;;;;;;;29.23;18.17;;;;;;;;;;5166824;27;20062;-75
2022/11/30 03:30:27;;;;;;;29.00;17.77;;;;;;;;;;5165388;27;20504;-75
2022/11/30 03:32:53;;;;;;;27.70;17.52;;;;;;;;;;5148857;27;20054;-76
2022/11/30 03:35:19;;;;;;;28.45;17.73;;;;;;;;;;5163840;27;20095;-75
2022/11/30 03:37:46;;;;;;;30.80;18.38;;;;;;;;;;5165899;27;20999;-75
2022/11/30 03:40:12;;;;;;;30.52;18.23;;;;;;;;;;5163212;27;20075;-72
2022/11/30 03:42:39;;;;;;;34.08;19.33;;;;;;;;;;5167470;27;20556;-74
2022/11/30 03:45:06;;;;;;;28.00;17.27;;;;;;;;;;5165228;27;20074;-75
2022/11/30 03:47:32;;;;;;;31.92;19.15;;;;;;;;;;5164840;27;20612;-75
2022/11/30 03:49:58;;;;;;;30.05;18.02;;;;;;;;;;5165256;27;20455;-72
2022/11/30 03:52:24;;;;;;;31.83;19.65;;;;;;;;;;5165722;27;20047;-72
2022/11/30 03:54:51;;;;;;;30.20;17.55;;;;;;;;;;5160317;27;20082;-74
2022/11/30 03:57:17;;;;;;;29.13;17.65;;;;;;;;;;5150951;27;20092;-74
2022/11/30 03:59:43;;;;;;;28.65;16.55;;;;;;;;;;5164319;27;20062;-72
2022/11/30 04:02:09;;;;;;;27.38;17.60;;;;;;;;;;5163204;27;20047;-73
2022/11/30 04:04:36;;;;;;;29.80;18.23;;;;;;;;;;5165534;27;20137;-73
2022/11/30 04:07:03;;;;;;;29.45;17.73;;;;;;;;;;5165732;27;20046;-72
2022/11/30 04:09:30;;;;;;;27.70;17.92;;;;;;;;;;5165668;27;20524;-74
2022/11/30 04:11:56;;;;;;;28.77;17.73;;;;;;;;;;5162818;27;20129;-74
2022/11/30 04:14:22;;;;;;;32.20;17.92;;;;;;;;;;5163642;27;20061;-73
2022/11/30 04:16:49;;;;;;;29.55;17.42;;;;;;;;;;5158035;27;20134;-72
2022/11/30 04:19:15;;;;;;;29.92;18.42;;;;;;;;;;5160803;27;20039;-72
2022/11/30 04:21:41;;;;;;;30.38;18.17;;;;;;;;;;5163050;27;20137;-71
2022/11/30 04:24:08;;;;;;;32.20;17.83;;;;;;;;;;5165646;27;20055;-75
2022/11/30 04:26:34;;;;;;;29.05;17.73;;;;;;;;;;5146972;27;20123;-73
2022/11/30 04:29:00;;;;;;;29.98;18.00;;;;;;;;;;5150995;27;20343;-73
2022/11/30 04:31:30;;;;;;;29.92;17.67;;;;;;;;;;5165085;27;20061;-75
2022/11/30 04:33:56;;;;;;;28.75;17.88;;;;;;;;;;5165845;27;20055;-73
2022/11/30 04:36:22;;;;;;;28.30;17.27;;;;;;;;;;5158754;27;20046;-73
2022/11/30 04:38:49;;;;;;;32.17;18.77;;;;;;;;;;5164406;27;20081;-75
2022/11/30 04:41:15;;;;;;;30.23;18.10;;;;;;;;;;5164318;27;20047;-73
2022/11/30 04:43:41;;;;;;;31.08;16.63;;;;;;;;;;5165396;27;20046;-71
2022/11/30 04:46:08;;;;;;;28.20;16.88;;;;;;;;;;5155886;27;20536;-73
2022/11/30 04:48:34;;;;;;;28.70;17.05;;;;;;;;;;5164833;27;20058;-74
2022/11/30 04:51:01;;;;;;;28.77;17.20;;;;;;;;;;5165473;27;20062;-75
2022/11/30 04:53:28;;;;;;;31.40;18.05;;;;;;;;;;5163432;27;20133;-74
2022/11/30 04:55:54;;;;;;;32.40;17.80;;;;;;;;;;5161841;27;20113;-74
2022/11/30 04:58:20;;;;;;;30.95;19.05;;;;;;;;;;5164026;27;20043;-74
2022/11/30 05:00:47;;;;;;;36.15;18.30;;;;;;;;;;5164612;27;20415;-74
2022/11/30 05:03:13;;;;;;;32.33;17.77;;;;;;;;;;5163023;27;20137;-73
2022/11/30 05:05:39;;;;;;;32.92;17.83;;;;;;;;;;5155331;27;20050;-73
2022/11/30 05:08:06;;;;;;;31.33;18.48;;;;;;;;;;5163292;27;20047;-74
2022/11/30 05:10:32;;;;;;;30.45;17.58;;;;;;;;;;5165625;27;20493;-72
2022/11/30 05:12:58;;;;;;;28.67;17.42;;;;;;;;;;5164828;27;20042;-74
2022/11/30 05:15:25;;;;;;;27.75;16.92;;;;;;;;;;5162106;27;20130;-74
2022/11/30 05:17:51;;;;;;;31.55;16.77;;;;;;;;;;5162238;27;20674;-72
2022/11/30 05:20:18;;;;;;;29.80;16.48;;;;;;;;;;5165405;27;20051;-73
2022/11/30 05:22:44;;;;;;;29.95;16.75;;;;;;;;;;5162074;27;20103;-74
2022/11/30 05:25:10;;;;;;;29.15;15.80;;;;;;;;;;5158576;27;20539;-71
2022/11/30 05:27:37;;;;;;;29.65;16.83;;;;;;;;;;5164350;27;20568;-73
2022/11/30 05:30:04;;;;;;;29.88;17.52;;;;;;;;;;5164262;27;20490;-73
2022/11/30 05:32:30;;;;;;;25.88;15.40;;;;;;;;;;5163407;27;20141;-74
2022/11/30 05:34:57;;;;;;;26.45;16.55;;;;;;;;;;5159120;27;20077;-74
2022/11/30 05:37:24;;;;;;;32.78;17.15;;;;;;;;;;5164282;27;20057;-75
2022/11/30 05:39:50;;;;;;;30.75;17.25;;;;;;;;;;5159029;27;20058;-75
2022/11/30 05:42:16;;;;;;;31.05;17.30;;;;;;;;;;5162198;27;20126;-74
2022/11/30 05:44:43;;;;;;;28.55;16.45;;;;;;;;;;5163472;27;20512;-74
2022/11/30 05:47:10;;;;;;;29.00;16.45;;;;;;;;;;5163270;27;20047;-71
2022/11/30 05:49:37;;;;;;;31.15;17.17;;;;;;;;;;5160168;27;20046;-74
2022/11/30 05:52:03;;;;;;;32.88;16.88;;;;;;;;;;5164288;27;20046;-72
2022/11/30 05:54:30;;;;;;;30.38;16.50;;;;;;;;;;5160040;27;20057;-73
2022/11/30 05:56:56;;;;;;;30.33;16.13;;;;;;;;;;5160501;27;20138;-73
2022/11/30 05:59:22;;;;;;;28.30;14.88;;;;;;;;;;5161357;27;20437;-75
2022/11/30 06:01:52;;;;;;;26.73;15.80;;;;;;;;;;5163522;27;20054;-72
2022/11/30 06:04:18;;;;;;;30.50;16.42;;;;;;;;;;5161442;27;20597;-75
2022/11/30 06:06:45;;;;;;;33.28;15.45;;;;;;;;;;5162421;27;20534;-75
2022/11/30 06:09:11;;;;;;;30.75;15.50;;;;;;;;;;5162129;27;20500;-71
2022/11/30 06:11:38;;;;;;;29.85;15.45;;;;;;;;;;5145502;27;20051;-72
2022/11/30 06:14:04;;;;;;;28.35;16.13;;;;;;;;;;5162893;27;20055;-75
2022/11/30 06:16:30;;;;;;;27.83;15.30;;;;;;;;;;5161751;27;20556;-74
2022/11/30 06:18:57;;;;;;;27.50;15.07;;;;;;;;;;5161181;27;20073;-75
2022/11/30 06:21:23;;;;;;;26.30;14.77;;;;;;;;;;5165088;27;20047;-74
2022/11/30 06:23:50;;;;;;;27.05;15.40;;;;;;;;;;5162616;27;20054;-73
2022/11/30 06:26:17;;;;;;;30.73;15.73;;;;;;;;;;5163610;27;20043;-71
2022/11/30 06:28:43;;;;;;;25.73;14.60;;;;;;;;;;5161718;27;20047;-74
2022/11/30 06:31:14;;;;;;;24.95;13.88;;;;;;;;;;5162312;27;20473;-76
2022/11/30 06:33:40;;;;;;;26.00;14.20;;;;;;;;;;5162506;27;20386;-72
2022/11/30 06:36:07;;;;;;;24.73;14.43;;;;;;;;;;5158803;27;20077;-73
2022/11/30 06:38:33;;;;;;;23.48;13.38;;;;;;;;;;5139385;27;20058;-73
2022/11/30 06:41:06;;;;;;;24.58;15.10;;;;;;;;;;5164555;27;20509;-74
2022/11/30 06:43:33;;;;;;;27.65;14.57;;;;;;;;;;5152305;27;20145;-75
2022/11/30 06:46:00;;;;;;;24.92;14.00;;;;;;;;;;5160764;27;20096;-72
2022/11/30 06:48:26;;;;;;;24.02;13.73;;;;;;;;;;5160379;27;20492;-73
2022/11/30 06:50:53;;;;;;;22.65;12.68;;;;;;;;;;5160357;27;20060;-75
2022/11/30 06:53:19;;;;;;;25.20;14.75;;;;;;;;;;5154432;27;20444;-72
2022/11/30 06:55:45;;;;;;;28.20;14.95;;;;;;;;;;5149013;27;20469;-72
2022/11/30 06:58:12;;;;;;;37.45;14.75;;;;;;;;;;5150883;27;20133;-74
2022/11/30 07:00:38;;;;;;;25.92;13.70;;;;;;;;;;5146922;27;20046;-74
2022/11/30 07:03:05;;;;;;;28.38;14.27;;;;;;;;;;5145229;27;20055;-72
2022/11/30 07:05:33;;;;;;;27.13;14.48;;;;;;;;;;5155146;27;20293;-72
2022/11/30 07:07:59;;;;;;;27.48;14.35;;;;;;;;;;5153035;27;20043;-75
2022/11/30 07:10:26;;;;;;;53.15;17.38;;;;;;;;;;5152141;27;20050;-75
2022/11/30 07:12:52;;;;;;;42.45;17.02;;;;;;;;;;5166215;27;20053;-75
2022/11/30 07:15:18;;;;;;;29.75;14.68;;;;;;;;;;5162611;27;20057;-72
2022/11/30 07:17:45;;;;;;;40.58;16.63;;;;;;;;;;5139884;27;20138;-74
2022/11/30 07:20:11;;;;;;;91.85;19.70;;;;;;;;;;5162809;27;20046;-72
2022/11/30 07:22:38;;;;;;;56.42;16.50;;;;;;;;;;5163631;27;20055;-71
2022/11/30 07:27:49;;;;;;;200.27;28.23;;;;;;;;;;5160276;27;20046;-75
2022/11/30 07:30:16;;;;;;;53.40;16.45;;;;;;;;;;5138184;27;20058;-74
2022/11/30 07:32:42;;;;;;;58.35;17.55;;;;;;;;;;5152957;27;20115;-74
2022/11/30 07:35:08;;;;;;;93.30;21.20;;;;;;;;;;5164144;27;20051;-75
2022/11/30 07:37:35;;;;;;;138.98;22.58;;;;;;;;;;5164141;27;20146;-73
2022/11/30 07:40:02;;;;;;;65.32;15.55;;;;;;;;;;5164670;27;20057;-75
2022/11/30 07:42:28;;;;;;;68.20;17.13;;;;;;;;;;5154396;27;20048;-72
2022/11/30 07:44:55;;;;;;;106.05;20.63;;;;;;;;;;5164399;27;20801;-75
2022/11/30 07:47:24;;;;;;;164.15;19.52;;;;;;;;;;5165465;27;20102;-71
2022/11/30 07:49:50;;;;;;;90.07;18.67;;;;;;;;;;5164367;27;20482;-74
2022/11/30 07:52:17;;;;;;;109.95;18.02;;;;;;;;;;5165699;27;20043;-75
2022/11/30 07:54:43;;;;;;;43.53;14.77;;;;;;;;;;5142605;27;20046;-74
2022/11/30 07:57:10;;;;;;;61.78;16.25;;;;;;;;;;5166573;27;20072;-74
2022/11/30 07:59:36;;;;;;;35.08;14.45;;;;;;;;;;5164340;27;20047;-75
2022/11/30 08:02:02;;;;;;;34.35;14.55;;;;;;;;;;5158157;27;20058;-75
2022/11/30 08:04:29;;;;;;;50.83;14.70;;;;;;;;;;5161159;27;20051;-72
2022/11/30 08:06:55;;;;;;;51.80;15.15;;;;;;;;;;5166314;27;20053;-75
2022/11/30 08:09:21;;;;;;;76.88;17.63;;;;;;;;;;5152039;27;20051;-74
2022/11/30 08:11:48;;;;;;;31.92;15.10;;;;;;;;;;5152012;27;20043;-75
2022/11/30 08:14:14;;;;;;;56.67;16.65;;;;;;;;;;5162661;27;20054;-74
2022/11/30 08:16:42;;;;;;;72.85;15.88;;;;;;;;;;5149462;27;20094;-71
2022/11/30 08:19:09;;;;;;;44.08;15.05;;;;;;;;;;5165150;27;20054;-75
2022/11/30 08:21:36;;;;;;;40.45;15.38;;;;;;;;;;5163645;27;20173;-73
2022/11/30 08:24:03;;;;;;;37.58;14.68;;;;;;;;;;5161973;27;20050;-72
2022/11/30 08:26:31;;;;;;;31.42;14.73;;;;;;;;;;5161507;27;20038;-73
2022/11/30 08:28:58;;;;;;;33.20;15.55;;;;;;;;;;5165538;27;20138;-73
2022/11/30 08:31:26;;;;;;;27.13;14.85;;;;;;;;;;5164001;27;20057;-75
2022/11/30 08:33:57;;;;;;;25.15;15.38;;;;;;;;;;5164104;27;20492;-75
2022/11/30 08:36:25;;;;;;;24.95;14.35;;;;;;;;;;5156561;27;20054;-74
2022/11/30 08:38:51;;;;;;;23.52;14.88;;;;;;;;;;5162517;27;20048;-74
2022/11/30 08:41:19;;;;;;;25.40;14.50;;;;;;;;;;5158517;27;20077;-71
2022/11/30 08:43:45;;;;;;;22.30;13.85;;;;;;;;;;5164681;27;20514;-70
2022/11/30 08:46:13;;;;;;;24.35;15.07;;;;;;;;;;5164361;27;20585;-72
2022/11/30 08:49:00;;;;;;;26.45;15.63;;;;;;;;;;5165102;27;20641;-72
2022/11/30 08:51:47;;;;;;;29.40;17.30;;;;;;;;;;5161462;27;20763;-74
2022/11/30 08:54:33;;;;;;;28.48;18.48;;;;;;;;;;5161738;27;20115;-75
2022/11/30 08:57:00;;;;;;;25.63;16.92;;;;;;;;;;5161806;27;20061;-74
2022/11/30 08:59:29;;;;;;;26.10;16.02;;;;;;;;;;5161054;27;20335;-72
2022/11/30 09:01:55;;;;;;;29.35;17.50;;;;;;;;;;5144087;27;20042;-74
2022/11/30 09:04:21;;;;;;;26.40;15.23;;;;;;;;;;5165242;27;20043;-72
2022/11/30 09:06:48;;;;;;;29.63;16.58;;;;;;;;;;5157062;27;20086;-73
2022/11/30 09:09:14;;;;;;;29.10;16.98;;;;;;;;;;5145308;27;20242;-76
2022/11/30 09:11:40;;;;;;;30.20;17.95;;;;;;;;;;5145090;27;20058;-71
2022/11/30 09:14:11;;;;;;;27.90;16.38;;;;;;;;;;5144235;27;20073;-72
2022/11/30 09:16:37;;;;;;;29.45;16.58;;;;;;;;;;5159679;27;20141;-72
2022/11/30 09:19:03;;;;;;;29.17;16.60;;;;;;;;;;5160101;27;20073;-74
2022/11/30 09:21:30;;;;;;;32.75;16.10;;;;;;;;;;5156364;27;20607;-72
2022/11/30 09:23:56;;;;;;;26.45;15.68;;;;;;;;;;5162424;27;20065;-72
2022/11/30 09:26:24;;;;;;;29.83;16.35;;;;;;;;;;5162068;27;20053;-76
2022/11/30 09:28:51;;;;;;;30.02;16.17;;;;;;;;;;5150396;27;20138;-75
2022/11/30 09:31:19;;;;;;;27.85;15.40;;;;;;;;;;5159134;27;20046;-75
2022/11/30 09:33:45;;;;;;;30.98;17.48;;;;;;;;;;5163585;27;20133;-75
2022/11/30 09:36:13;;;;;;;29.30;16.98;;;;;;;;;;5161467;27;20555;-73
2022/11/30 09:38:43;;;;;;;36.13;19.00;;;;;;;;;;5164769;27;20408;-74
2022/11/30 09:41:22;;;;;;;32.95;19.00;;;;;;;;;;5161544;27;20043;-74
2022/11/30 09:43:58;;;;;;;33.50;18.60;;;;;;;;;;5162403;27;20053;-74
2022/11/30 09:46:27;;;;;;;35.80;18.50;;;;;;;;;;5163334;27;20046;-74
2022/11/30 09:48:58;;;;;;;31.17;18.92;;;;;;;;;;5158163;27;20294;-74
2022/11/30 09:51:26;;;;;;;32.83;19.13;;;;;;;;;;5154428;27;20058;-75
2022/11/30 09:53:58;;;;;;;33.38;18.95;;;;;;;;;;5156658;27;20063;-73
2022/11/30 09:56:32;;;;;;;34.55;19.33;;;;;;;;;;5159419;27;20047;-73
2022/11/30 09:59:05;;;;;;;32.97;18.98;;;;;;;;;;5163104;27;20585;-75
2022/11/30 10:01:33;;;;;;;31.70;20.15;;;;;;;;;;5137494;27;20119;-74
2022/11/30 10:04:02;;;;;;;35.92;20.95;;;;;;;;;;5146844;27;20099;-74
2022/11/30 10:06:44;;;;;;;34.95;21.10;;;;;;;;;;5162389;27;20078;-74
2022/11/30 10:09:25;;;;;;;35.42;19.60;;;;;;;;;;5160492;27;20518;-71
2022/11/30 10:11:51;;;;;;;39.92;23.30;;;;;;;;;;5161442;27;20051;-74
2022/11/30 10:14:20;;;;;;;38.35;21.80;;;;;;;;;;5161333;27;20575;-71
2022/11/30 10:17:05;;;;;;;38.40;21.63;;;;;;;;;;5142369;27;20133;-74
2022/11/30 10:19:50;;;;;;;37.73;21.93;;;;;;;;;;5159730;27;20095;-71
2022/11/30 10:22:24;;;;;;;39.00;22.10;;;;;;;;;;5140345;27;20273;-74
2022/11/30 10:25:14;;;;;;;42.58;23.63;;;;;;;;;;5145614;27;20512;-74
2022/11/30 10:27:53;;;;;;;43.40;22.08;;;;;;;;;;5164240;27;20799;-74
2022/11/30 10:30:21;;;;;;;39.83;23.52;;;;;;;;;;5158850;27;20728;-72
2022/11/30 10:32:50;;;;;;;44.22;22.50;;;;;;;;;;5162049;27;20053;-71
2022/11/30 10:35:23;;;;;;;41.90;24.50;;;;;;;;;;5164073;27;20043;-74
2022/11/30 10:37:50;;;;;;;37.83;21.08;;;;;;;;;;5161931;27;20138;-73
2022/11/30 10:40:21;;;;;;;40.70;22.17;;;;;;;;;;5160795;27;20328;-76
2022/11/30 10:43:03;;;;;;;38.40;21.80;;;;;;;;;;5164883;27;20053;-73
2022/11/30 10:45:31;;;;;;;38.28;21.73;;;;;;;;;;5163281;27;20054;-76
2022/11/30 10:48:11;;;;;;;39.45;21.85;;;;;;;;;;5159452;27;20139;-76
2022/11/30 10:50:38;;;;;;;39.53;21.75;;;;;;;;;;5164834;27;20506;-76
2022/11/30 10:53:05;;;;;;;33.10;21.50;;;;;;;;;;5147227;27;20059;-73
2022/11/30 10:55:37;;;;;;;34.17;20.00;;;;;;;;;;5162703;27;20082;-76
2022/11/30 10:58:08;;;;;;;32.35;20.27;;;;;;;;;;5163797;27;20051;-73
2022/11/30 11:00:35;;;;;;;35.00;21.38;;;;;;;;;;5165896;27;20423;-76
2022/11/30 11:03:01;;;;;;;34.17;20.83;;;;;;;;;;5166116;27;20058;-71
2022/11/30 11:05:28;;;;;;;31.80;20.80;;;;;;;;;;5154280;27;20152;-72
2022/11/30 11:08:02;;;;;;;38.58;21.38;;;;;;;;;;5160218;27;20143;-70
2022/11/30 11:10:32;;;;;;;31.75;20.25;;;;;;;;;;5154333;27;20043;-70
2022/11/30 11:12:59;;;;;;;35.20;21.33;;;;;;;;;;5166158;27;20130;-70
2022/11/30 11:15:26;;;;;;;31.63;19.40;;;;;;;;;;5161683;27;20047;-70
2022/11/30 11:18:13;;;;;;;32.70;19.42;;;;;;;;;;5163547;27;20348;-73
2022/11/30 11:20:42;;;;;;;33.17;19.60;;;;;;;;;;5167299;27;20141;-72
2022/11/30 11:23:19;;;;;;;30.58;18.83;;;;;;;;;;5157910;27;20212;-73
2022/11/30 11:25:48;;;;;;;32.58;20.25;;;;;;;;;;5159892;27;20051;-73
2022/11/30 11:28:17;;;;;;;32.55;19.27;;;;;;;;;;5151627;27;20172;-76
2022/11/30 11:30:44;;;;;;;37.22;19.92;;;;;;;;;;5164012;27;20415;-74
2022/11/30 11:33:13;;;;;;;31.02;19.42;;;;;;;;;;5165255;27;20057;-75
2022/11/30 11:35:43;;;;;;;35.63;20.55;;;;;;;;;;5167397;27;20072;-74
2022/11/30 11:38:18;;;;;;;33.63;19.33;;;;;;;;;;5148289;27;20138;-71
2022/11/30 11:40:45;;;;;;;;;;;;;;;;;;5147286;27;20093;-74
2022/11/30 11:43:15;;;;;;;29.90;17.85;;;;;;;;;;5143440;27;47279;-59
2022/11/30 11:45:48;;;;;;;30.98;18.20;;;;;;;;;;5158316;27;20534;-75
2022/11/30 11:48:34;;;;;;;30.50;18.40;;;;;;;;;;5155056;27;20540;-72
2022/11/30 11:51:02;;;;;;;31.65;18.65;;;;;;;;;;5149985;27;20612;-76
2022/11/30 11:53:33;;;;;;;29.02;19.08;;;;;;;;;;5161483;27;20054;-75
2022/11/30 11:56:10;;;;;;;28.13;18.13;;;;;;;;;;5154067;27;20057;-75
2022/11/30 11:58:42;;;;;;;30.92;18.15;;;;;;;;;;5166934;27;20647;-75
2022/11/30 12:01:18;;;;;;;27.70;17.95;;;;;;;;;;5166880;27;20051;-74
2022/11/30 12:04:11;;;;;;;31.95;18.17;;;;;;;;;;5163964;27;20111;-72
2022/11/30 12:06:38;;;;;;;27.55;17.30;;;;;;;;;;5164957;27;20057;-73
2022/11/30 12:09:12;;;;;;;30.13;18.73;;;;;;;;;;5163674;27;20504;-72
2022/11/30 12:11:46;;;;;;;28.83;18.77;;;;;;;;;;5167370;27;20051;-73
2022/11/30 12:14:13;;;;;;;27.98;17.20;;;;;;;;;;5165811;27;20054;-74
2022/11/30 12:16:48;;;;;;;30.05;17.85;;;;;;;;;;5167091;27;20574;-74
2022/11/30 12:19:22;;;;;;;27.37;17.20;;;;;;;;;;5162296;27;20047;-73
2022/11/30 12:21:58;;;;;;;30.27;17.90;;;;;;;;;;5156106;27;20284;-73
2022/11/30 12:24:47;;;;;;;31.55;16.85;;;;;;;;;;5164911;27;20742;-73
2022/11/30 12:27:19;;;;;;;29.20;18.23;;;;;;;;;;5057794;28;20049;-73
2022/11/30 12:29:56;;;;;;;28.15;18.55;;;;;;;;;;5067367;28;20606;-72
2022/11/30 12:32:28;;;;;;;32.40;18.02;;;;;;;;;;5080580;28;20216;-73
2022/11/30 12:35:08;;;;;;;27.15;17.80;;;;;;;;;;5081046;28;20064;-73
2022/11/30 12:37:43;;;;;;;28.98;17.85;;;;;;;;;;5076694;28;20067;-74
2022/11/30 12:40:27;;;;;;;28.70;17.20;;;;;;;;;;5080535;28;20110;-72
2022/11/30 12:42:57;;;;;;;28.73;17.88;;;;;;;;;;5073253;28;20760;-74
2022/11/30 12:45:38;;;;;;;29.08;18.48;;;;;;;;;;5066690;28;20052;-74
2022/11/30 12:48:22;;;;;;;29.88;18.33;;;;;;;;;;5058162;28;20466;-73
2022/11/30 12:51:00;;;;;;;30.80;19.38;;;;;;;;;;5053514;28;20084;-74
2022/11/30 12:53:27;;;;;;;30.23;17.70;;;;;;;;;;5058537;28;20045;-74
2022/11/30 12:55:56;;;;;;;30.63;18.75;;;;;;;;;;5060013;28;20053;-73
2022/11/30 12:58:38;;;;;;;25.50;16.77;;;;;;;;;;5059489;28;20578;-73
2022/11/30 13:01:20;;;;;;;28.95;18.38;;;;;;;;;;5073036;28;20049;-73
2022/11/30 13:03:54;;;;;;;30.42;18.25;;;;;;;;;;5096768;27;20058;-72
2022/11/30 13:06:23;;;;;;;27.92;17.67;;;;;;;;;;5155167;27;20051;-74
2022/11/30 13:09:04;;;;;;;30.52;18.75;;;;;;;;;;5148729;27;20055;-73
2022/11/30 13:11:37;;;;;;;25.98;16.88;;;;;;;;;;5160619;27;20594;-74
2022/11/30 13:14:12;;;;;;;29.85;18.25;;;;;;;;;;5159964;27;20050;-68
2022/11/30 13:16:39;;;;;;;30.13;18.73;;;;;;;;;;5164135;27;20051;-73
2022/11/30 13:19:24;;;;;;;28.92;19.70;;;;;;;;;;5154775;27;20066;-70
2022/11/30 13:22:02;;;;;;;36.47;19.80;;;;;;;;;;5155975;27;20050;-72
2022/11/30 13:24:34;;;;;;;32.65;20.40;;;;;;;;;;5162912;27;20493;-73
2022/11/30 13:27:05;;;;;;;32.25;20.38;;;;;;;;;;5151287;27;20475;-74
2022/11/30 13:29:50;;;;;;;33.22;20.35;;;;;;;;;;5161522;27;20804;-71
2022/11/30 13:32:16;;;;;;;31.25;18.98;;;;;;;;;;5151214;27;20142;-71
2022/11/30 13:35:21;;;;;;;32.40;19.38;;;;;;;;;;5153530;27;20049;-73
2022/11/30 13:37:59;;;;;;;31.70;18.27;;;;;;;;;;5159593;27;20047;-72
2022/11/30 13:40:59;;;;;;;32.85;18.80;;;;;;;;;;5141025;27;20531;-73
2022/11/30 13:43:28;;;;;;;34.35;18.55;;;;;;;;;;5157293;27;20567;-71
2022/11/30 13:46:05;;;;;;;26.30;17.08;;;;;;;;;;5155450;27;20595;-72
2022/11/30 13:48:32;;;;;;;27.30;16.70;;;;;;;;;;5162736;27;20142;-71
2022/11/30 13:50:59;;;;;;;32.17;18.15;;;;;;;;;;5163889;27;20880;-73
2022/11/30 13:53:32;;;;;;;29.00;16.90;;;;;;;;;;5150360;27;20063;-73
2022/11/30 13:56:00;;;;;;;26.63;15.95;;;;;;;;;;5163169;27;20046;-72
2022/11/30 13:58:27;;;;;;;25.85;15.20;;;;;;;;;;5139852;27;20607;-72
2022/11/30 14:01:00;;;;;;;26.70;14.38;;;;;;;;;;5144980;27;20058;-72
2022/11/30 14:03:28;;;;;;;25.90;15.20;;;;;;;;;;5162569;27;20049;-75
2022/11/30 14:05:55;;;;;;;22.77;15.07;;;;;;;;;;5163160;27;20055;-73
2022/11/30 14:08:21;;;;;;;26.23;14.35;;;;;;;;;;5163617;27;20049;-75
2022/11/30 14:10:49;;;;;;;22.42;14.07;;;;;;;;;;5160377;27;20522;-74
2022/11/30 14:13:20;;;;;;;24.88;13.40;;;;;;;;;;5161359;27;20561;-73
2022/11/30 14:15:46;;;;;;;23.48;13.55;;;;;;;;;;5160331;27;20054;-72
2022/11/30 14:18:18;;;;;;;25.40;13.63;;;;;;;;;;5165427;27;20047;-74
2022/11/30 14:20:50;;;;;;;23.27;13.38;;;;;;;;;;5165614;27;20067;-73
2022/11/30 14:23:35;;;;;;;22.98;13.63;;;;;;;;;;5162300;27;20593;-75
2022/11/30 14:26:07;;;;;;;20.98;13.60;;;;;;;;;;5167511;27;20055;-73
2022/11/30 14:28:39;;;;;;;21.80;13.50;;;;;;;;;;5162440;27;20074;-74
2022/11/30 14:31:07;;;;;;;23.98;13.93;;;;;;;;;;5166527;27;20577;-73